createdAt,value
2023-01-07T00:00:52.059Z,54.39
2023-01-07T00:03:38.611Z,54.16
2023-01-07T00:06:26.765Z,54.51
2023-01-07T00:09:16.487Z,54.18
2023-01-07T00:12:02.775Z,54.58
2023-01-07T00:14:48.536Z,54.37
2023-01-07T00:17:34.465Z,54.33
2023-01-07T00:20:20.155Z,54.61
2023-01-07T00:23:05.866Z,54.39
2023-01-07T00:25:52.777Z,54.40
2023-01-07T00:28:40.821Z,54.29
2023-01-07T00:31:32.282Z,54.57
2023-01-07T00:34:23.557Z,54.64
2023-01-07T00:37:29.340Z,54.30
2023-01-07T00:40:15.198Z,54.82
2023-01-07T00:43:02.326Z,54.88
2023-01-07T00:45:48.292Z,54.91
2023-01-07T00:48:34.021Z,54.76
2023-01-07T00:51:20.108Z,54.92
2023-01-07T00:54:06.462Z,54.62
2023-01-07T00:56:52.574Z,54.57
2023-01-07T00:59:38.905Z,55.02
2023-01-07T01:02:24.534Z,54.88
2023-01-07T01:05:12.203Z,55.01
2023-01-07T01:07:58.177Z,54.71
2023-01-07T01:10:45.093Z,54.45
2023-01-07T01:13:30.950Z,54.62
2023-01-07T01:16:18.107Z,54.55
2023-01-07T01:19:03.973Z,55.14
2023-01-07T01:21:49.604Z,54.74
2023-01-07T01:24:35.148Z,54.61
2023-01-07T01:27:20.845Z,55.07
2023-01-07T01:30:07.748Z,54.55
2023-01-07T01:32:57.071Z,54.96
2023-01-07T01:35:43.918Z,54.81
2023-01-07T01:38:30.277Z,54.91
2023-01-07T01:41:19.060Z,55.02
2023-01-07T01:44:40.024Z,55.04
2023-01-07T01:47:47.638Z,55.17
2023-01-07T01:50:39.874Z,55.18
2023-01-07T01:53:29.487Z,55.09
2023-01-07T01:56:19.236Z,54.88
2023-01-07T01:59:08.237Z,55.58
2023-01-07T02:01:57.199Z,55.32
2023-01-07T02:04:43.294Z,55.04
2023-01-07T02:07:30.642Z,55.07
2023-01-07T02:10:22.508Z,55.30
2023-01-07T02:13:25.735Z,55.83
2023-01-07T02:16:22.705Z,55.06
2023-01-07T02:20:00.232Z,56.11
2023-01-07T02:22:47.125Z,55.84
2023-01-07T02:25:49.001Z,55.53
2023-01-07T02:29:11.391Z,55.49
2023-01-07T02:32:16.632Z,55.14
2023-01-07T02:35:19.777Z,55.50
2023-01-07T02:38:09.514Z,55.80
2023-01-07T02:41:38.388Z,55.59
2023-01-07T02:45:01.212Z,55.72
2023-01-07T02:47:54.260Z,56.15
2023-01-07T02:50:40.445Z,55.42
2023-01-07T02:53:26.207Z,55.71
2023-01-07T02:56:29.042Z,55.66
2023-01-07T02:59:27.845Z,55.86
2023-01-07T03:02:27.786Z,56.50
2023-01-07T03:06:01.479Z,56.15
2023-01-07T03:09:09.041Z,56.11
2023-01-07T03:12:22.022Z,56.37
2023-01-07T03:15:15.297Z,56.32
2023-01-07T03:18:20.650Z,56.01
2023-01-07T03:21:10.381Z,55.67
2023-01-07T03:23:57.424Z,55.66
2023-01-07T03:26:48.817Z,56.01
2023-01-07T03:29:38.469Z,55.91
2023-01-07T03:32:55.003Z,56.06
2023-01-07T03:35:43.393Z,55.94
2023-01-07T03:38:29.797Z,55.71
2023-01-07T03:41:37.291Z,55.63
2023-01-07T03:44:23.207Z,55.79
2023-01-07T03:47:10.106Z,55.49
2023-01-07T03:49:56.028Z,56.18
2023-01-07T03:52:42.457Z,55.83
2023-01-07T03:55:28.333Z,55.88
2023-01-07T03:58:15.593Z,55.64
2023-01-07T04:01:01.404Z,56.35
2023-01-07T04:03:47.631Z,55.76
2023-01-07T04:06:33.858Z,55.71
2023-01-07T04:09:21.587Z,55.75
2023-01-07T04:12:07.696Z,56.05
2023-01-07T04:14:53.973Z,55.77
2023-01-07T04:17:40.113Z,56.03
2023-01-07T04:20:28.044Z,56.43
2023-01-07T04:23:15.060Z,55.88
2023-01-07T04:26:03.806Z,56.06
2023-01-07T04:28:49.664Z,55.83
2023-01-07T04:31:36.023Z,56.42
2023-01-07T04:34:21.823Z,56.11
2023-01-07T04:37:07.614Z,56.52
2023-01-07T04:39:53.871Z,55.79
2023-01-07T04:42:39.808Z,55.88
2023-01-07T04:45:27.515Z,56.47
2023-01-07T04:48:13.945Z,56.52
2023-01-07T04:51:00.149Z,56.21
2023-01-07T04:53:47.239Z,56.59
2023-01-07T04:56:33.387Z,56.15
2023-01-07T04:59:20.112Z,56.38
2023-01-07T05:02:06.891Z,56.39
2023-01-07T05:04:52.888Z,56.37
2023-01-07T05:07:40.343Z,56.75
2023-01-07T05:10:27.817Z,56.64
2023-01-07T05:13:18.993Z,56.71
2023-01-07T05:16:07.910Z,56.38
2023-01-07T05:18:54.004Z,56.29
2023-01-07T05:21:39.668Z,56.45
2023-01-07T05:24:26.438Z,56.85
2023-01-07T05:27:12.221Z,56.82
2023-01-07T05:29:59.708Z,56.41
2023-01-07T05:32:45.408Z,56.06
2023-01-07T05:35:34.328Z,56.81
2023-01-07T05:38:20.832Z,56.37
2023-01-07T05:41:08.509Z,56.70
2023-01-07T05:43:55.317Z,56.85
2023-01-07T05:46:40.997Z,56.54
2023-01-07T05:49:26.720Z,56.81
2023-01-07T05:52:12.262Z,56.89
2023-01-07T05:54:58.062Z,56.46
2023-01-07T05:57:43.758Z,56.82
2023-01-07T06:00:29.563Z,56.83
2023-01-07T06:03:15.324Z,56.59
2023-01-07T06:06:07.176Z,56.70
2023-01-07T06:08:53.320Z,56.96
2023-01-07T06:11:38.964Z,57.10
2023-01-07T06:14:24.595Z,56.99
2023-01-07T06:17:10.320Z,56.35
2023-01-07T06:19:56.005Z,56.70
2023-01-07T06:22:44.601Z,56.55
2023-01-07T06:25:30.458Z,56.36
2023-01-07T06:28:16.257Z,57.33
2023-01-07T06:31:01.916Z,56.86
2023-01-07T06:33:47.776Z,57.05
2023-01-07T06:36:33.508Z,57.11
2023-01-07T06:39:19.283Z,57.02
2023-01-07T06:42:05.381Z,56.43
2023-01-07T06:44:51.227Z,57.01
2023-01-07T06:47:37.243Z,57.07
2023-01-07T06:50:23.356Z,57.25
2023-01-07T06:53:08.848Z,56.64
2023-01-07T06:55:54.754Z,56.71
2023-01-07T06:58:40.635Z,56.95
2023-01-07T07:01:26.501Z,56.68
2023-01-07T07:04:12.496Z,56.97
2023-01-07T07:06:58.463Z,57.17
2023-01-07T07:09:44.418Z,57.22
2023-01-07T07:12:30.405Z,57.18
2023-01-07T07:15:21.404Z,56.97
2023-01-07T07:18:07.529Z,57.60
2023-01-07T07:21:11.135Z,57.51
2023-01-07T07:23:56.776Z,57.19
2023-01-07T07:26:42.476Z,56.87
2023-01-07T07:29:28.099Z,56.97
2023-01-07T07:32:20.693Z,57.15
2023-01-07T07:35:07.296Z,56.99
2023-01-07T07:37:55.457Z,57.59
2023-01-07T07:40:41.324Z,56.89
2023-01-07T07:43:36.386Z,57.23
2023-01-07T07:46:22.227Z,57.42
2023-01-07T07:49:07.817Z,57.21
2023-01-07T07:51:53.659Z,57.25
2023-01-07T07:54:39.407Z,56.93
2023-01-07T07:57:25.158Z,57.29
2023-01-07T08:00:11.674Z,57.49
2023-01-07T08:03:00.239Z,57.02
2023-01-07T08:05:46.194Z,57.66
2023-01-07T08:08:32.281Z,57.36
2023-01-07T08:11:18.232Z,57.09
2023-01-07T08:14:04.060Z,56.83
2023-01-07T08:16:49.771Z,57.30
2023-01-07T08:19:35.650Z,57.41
2023-01-07T08:22:21.570Z,56.81
2023-01-07T08:25:07.904Z,57.25
2023-01-07T08:27:55.948Z,56.99
2023-01-07T08:30:42.881Z,56.87
2023-01-07T08:33:29.216Z,57.19
2023-01-07T08:36:22.727Z,57.48
2023-01-07T08:39:09.251Z,56.98
2023-01-07T08:41:55.151Z,57.18
2023-01-07T08:44:41.545Z,57.28
2023-01-07T08:47:28.075Z,57.32
2023-01-07T08:50:14.053Z,57.58
2023-01-07T08:53:00.047Z,57.26
2023-01-07T08:55:46.401Z,57.58
2023-01-07T08:58:32.156Z,57.54
2023-01-07T09:01:18.008Z,57.46
2023-01-07T09:04:04.083Z,57.37
2023-01-07T09:06:49.786Z,57.06
2023-01-07T09:09:36.709Z,57.16
2023-01-07T09:12:22.419Z,57.86
2023-01-07T09:15:09.202Z,57.80
2023-01-07T09:17:55.221Z,57.98
2023-01-07T09:20:41.378Z,57.63
2023-01-07T09:23:27.025Z,57.45
2023-01-07T09:26:12.671Z,57.49
2023-01-07T09:28:58.422Z,57.12
2023-01-07T09:31:44.031Z,57.08
2023-01-07T09:34:29.816Z,56.98
2023-01-07T09:37:15.779Z,56.63
2023-01-07T09:40:01.993Z,56.44
2023-01-07T09:42:58.070Z,55.85
2023-01-07T09:45:50.313Z,55.85
2023-01-07T09:48:40.864Z,55.42
2023-01-07T09:51:31.115Z,55.67
2023-01-07T09:54:28.476Z,55.33
2023-01-07T09:57:17.020Z,55.29
2023-01-07T10:00:03.810Z,55.35
2023-01-07T10:03:11.322Z,55.31
2023-01-07T10:06:41.935Z,54.88
2023-01-07T10:09:47.295Z,54.99
2023-01-07T10:12:49.065Z,54.78
2023-01-07T10:15:40.334Z,54.76
2023-01-07T10:18:26.172Z,54.79
2023-01-07T10:21:16.905Z,54.51
2023-01-07T10:24:05.325Z,54.01
2023-01-07T10:26:54.635Z,54.09
2023-01-07T10:29:45.191Z,53.88
2023-01-07T10:32:33.467Z,53.83
2023-01-07T10:35:21.446Z,53.17
2023-01-07T10:38:12.075Z,53.37
2023-01-07T10:41:02.039Z,53.71
2023-01-07T10:44:04.622Z,52.97
2023-01-07T10:47:21.641Z,50.60
2023-01-07T10:50:39.292Z,52.41
2023-01-07T10:53:58.007Z,52.41
2023-01-07T10:56:48.229Z,52.04
2023-01-07T10:59:34.512Z,52.00
2023-01-07T11:02:28.001Z,51.59
2023-01-07T11:05:14.960Z,50.40
2023-01-07T11:08:01.846Z,51.71
2023-01-07T11:10:52.233Z,50.97
2023-01-07T11:13:39.454Z,51.18
2023-01-07T11:16:29.373Z,50.83
2023-01-07T11:19:16.705Z,50.34
2023-01-07T11:22:02.522Z,50.32
2023-01-07T11:24:48.226Z,50.38
2023-01-07T11:27:34.520Z,50.37
2023-01-07T11:30:25.602Z,50.28
2023-01-07T11:34:01.978Z,49.98
2023-01-07T11:36:42.465Z,49.25
2023-01-07T11:39:30.874Z,50.30
2023-01-07T11:42:39.734Z,49.95
2023-01-07T11:46:19.907Z,49.04
2023-01-07T11:49:03.426Z,49.49
2023-01-07T11:51:55.131Z,49.12
2023-01-07T11:54:40.845Z,48.98
2023-01-07T11:57:27.291Z,49.17
2023-01-07T12:00:17.506Z,48.99
2023-01-07T12:03:10.964Z,48.55
2023-01-07T12:05:57.463Z,46.52
2023-01-07T12:09:03.129Z,48.20
2023-01-07T12:11:50.172Z,48.01
2023-01-07T12:14:38.702Z,47.70
2023-01-07T12:17:28.398Z,47.91
2023-01-07T12:20:35.800Z,46.04
2023-01-07T12:23:53.538Z,44.11
2023-01-07T12:27:03.808Z,47.40
2023-01-07T12:30:15.136Z,46.94
2023-01-07T12:33:29.555Z,46.79
2023-01-07T12:36:16.323Z,42.67
2023-01-07T12:39:05.422Z,46.37
2023-01-07T12:41:59.474Z,46.04
2023-01-07T12:44:50.044Z,46.16
2023-01-07T12:47:48.563Z,45.61
2023-01-07T12:50:55.294Z,43.77
2023-01-07T12:53:53.586Z,41.44
2023-01-07T12:56:53.487Z,45.08
2023-01-07T13:00:01.569Z,44.38
2023-01-07T13:03:00.119Z,45.21
2023-01-07T13:05:57.157Z,45.83
2023-01-07T13:08:47.631Z,46.18
2023-01-07T13:12:41.449Z,43.00
2023-01-07T13:15:28.240Z,46.84
2023-01-07T13:18:16.813Z,47.28
2023-01-07T13:21:11.499Z,47.69
2023-01-07T13:24:09.614Z,48.09
2023-01-07T13:27:05.324Z,48.13
2023-01-07T13:30:20.664Z,48.42
2023-01-07T13:33:48.475Z,48.50
2023-01-07T13:36:42.416Z,48.08
2023-01-07T13:39:34.631Z,48.09
2023-01-07T13:42:37.419Z,46.64
2023-01-07T13:45:25.056Z,47.43
2023-01-07T13:48:23.056Z,44.89
2023-01-07T13:51:10.314Z,46.77
2023-01-07T13:53:56.122Z,46.18
2023-01-07T13:56:42.507Z,46.34
2023-01-07T13:59:30.034Z,45.83
2023-01-07T14:02:19.620Z,45.52
2023-01-07T14:05:05.488Z,45.75
2023-01-07T14:07:53.312Z,45.40
2023-01-07T14:10:39.311Z,45.17
2023-01-07T14:13:36.187Z,44.04
2023-01-07T14:16:28.684Z,44.44
2023-01-07T14:19:32.046Z,44.43
2023-01-07T14:22:52.257Z,44.12
2023-01-07T14:26:03.753Z,44.81
2023-01-07T14:29:23.926Z,45.31
2023-01-07T14:32:14.170Z,46.39
2023-01-07T14:35:22.781Z,45.23
2023-01-07T14:38:30.353Z,45.48
2023-01-07T14:41:17.556Z,46.89
2023-01-07T14:44:26.681Z,46.88
2023-01-07T14:47:14.310Z,47.29
2023-01-07T14:50:28.715Z,47.10
2023-01-07T14:53:33.683Z,47.61
2023-01-07T14:56:32.476Z,47.48
2023-01-07T14:59:24.528Z,47.70
2023-01-07T15:02:37.545Z,47.83
2023-01-07T15:05:29.399Z,47.92
2023-01-07T15:08:38.268Z,48.37
2023-01-07T15:11:44.328Z,47.95
2023-01-07T15:14:54.466Z,48.09
2023-01-07T15:17:41.011Z,48.39
2023-01-07T15:20:38.004Z,48.50
2023-01-07T15:23:43.309Z,48.76
2023-01-07T15:26:36.223Z,48.53
2023-01-07T15:29:37.536Z,48.72
2023-01-07T15:32:40.062Z,48.84
2023-01-07T15:35:37.758Z,49.25
2023-01-07T15:38:29.650Z,49.32
2023-01-07T15:41:39.507Z,48.95
2023-01-07T15:44:38.270Z,49.37
2023-01-07T15:47:42.349Z,49.83
2023-01-07T15:50:35.001Z,49.21
2023-01-07T15:53:23.075Z,49.42
2023-01-07T15:56:13.944Z,49.63
2023-01-07T15:58:59.542Z,49.63
2023-01-07T16:01:48.035Z,50.09
2023-01-07T16:04:37.124Z,49.93
2023-01-07T16:07:26.007Z,49.94
2023-01-07T16:10:30.081Z,50.20
2023-01-07T16:13:18.781Z,49.79
2023-01-07T16:16:06.648Z,50.13
2023-01-07T16:18:59.954Z,50.16
2023-01-07T16:21:54.951Z,49.99
2023-01-07T16:24:46.926Z,50.30
2023-01-07T16:27:33.022Z,50.40
2023-01-07T16:30:19.030Z,49.77
2023-01-07T16:33:05.896Z,50.44
2023-01-07T16:35:55.789Z,50.32
2023-01-07T16:38:42.155Z,50.13
2023-01-07T16:41:29.558Z,50.30
2023-01-07T16:44:46.541Z,50.35
2023-01-07T16:47:34.213Z,50.41
2023-01-07T16:50:20.218Z,50.45
2023-01-07T16:53:22.547Z,50.96
2023-01-07T16:56:18.320Z,50.91
2023-01-07T16:59:04.317Z,51.33
2023-01-07T17:01:50.353Z,50.73
2023-01-07T17:04:36.422Z,51.04
2023-01-07T17:07:25.263Z,51.40
2023-01-07T17:10:27.847Z,51.16
2023-01-07T17:13:13.453Z,51.18
2023-01-07T17:16:15.739Z,51.09
2023-01-07T17:19:24.782Z,51.05
2023-01-07T17:22:35.062Z,51.61
2023-01-07T17:25:24.638Z,51.18
2023-01-07T17:28:19.214Z,51.18
2023-01-07T17:31:07.076Z,51.41
2023-01-07T17:33:54.443Z,51.52
2023-01-07T17:36:40.388Z,51.05
2023-01-07T17:39:26.146Z,51.17
2023-01-07T17:42:45.898Z,52.10
2023-01-07T17:45:32.543Z,51.32
2023-01-07T17:48:18.523Z,51.79
2023-01-07T17:51:07.203Z,51.85
2023-01-07T17:53:55.834Z,51.78
2023-01-07T17:56:41.695Z,51.67
2023-01-07T17:59:28.994Z,51.87
2023-01-07T18:02:17.664Z,51.94
2023-01-07T18:05:03.894Z,52.16
2023-01-07T18:07:51.063Z,52.28
2023-01-07T18:10:55.320Z,51.97
2023-01-07T18:13:41.889Z,52.30
2023-01-07T18:16:28.143Z,52.50
2023-01-07T18:19:15.300Z,52.22
2023-01-07T18:22:01.162Z,52.19
2023-01-07T18:24:50.314Z,52.46
2023-01-07T18:27:36.266Z,52.54
2023-01-07T18:30:23.290Z,52.41
2023-01-07T18:33:13.473Z,52.74
2023-01-07T18:36:00.713Z,52.73
2023-01-07T18:38:46.712Z,52.57
2023-01-07T18:41:33.820Z,52.76
2023-01-07T18:44:21.416Z,52.77
2023-01-07T18:47:07.814Z,52.77
2023-01-07T18:49:54.303Z,52.57
2023-01-07T18:52:41.266Z,52.73
2023-01-07T18:55:27.627Z,52.94
2023-01-07T18:58:15.142Z,52.69
2023-01-07T19:01:05.382Z,53.06
2023-01-07T19:03:51.776Z,52.99
2023-01-07T19:06:38.040Z,53.04
2023-01-07T19:09:23.919Z,52.99
2023-01-07T19:12:11.410Z,53.00
2023-01-07T19:14:57.544Z,53.16
2023-01-07T19:17:43.342Z,53.07
2023-01-07T19:20:29.060Z,53.19
2023-01-07T19:23:14.940Z,53.11
2023-01-07T19:26:02.868Z,53.10
2023-01-07T19:28:49.017Z,53.23
2023-01-07T19:31:36.262Z,53.29
2023-01-07T19:34:22.510Z,53.06
2023-01-07T19:37:08.358Z,53.13
2023-01-07T19:39:54.231Z,53.27
2023-01-07T19:42:39.963Z,53.41
2023-01-07T19:45:25.735Z,53.63
2023-01-07T19:48:11.558Z,53.63
2023-01-07T19:50:59.314Z,53.61
2023-01-07T19:53:47.891Z,53.38
2023-01-07T19:56:34.619Z,53.97
2023-01-07T19:59:20.183Z,53.91
2023-01-07T20:02:05.981Z,53.73
2023-01-07T20:04:52.226Z,53.94
2023-01-07T20:07:37.920Z,53.78
2023-01-07T20:10:23.679Z,54.01
2023-01-07T20:13:09.682Z,53.91
2023-01-07T20:15:55.818Z,53.92
2023-01-07T20:18:46.489Z,53.98
2023-01-07T20:21:33.057Z,53.69
2023-01-07T20:24:19.196Z,54.17
2023-01-07T20:27:05.437Z,54.13
2023-01-07T20:29:51.230Z,54.11
2023-01-07T20:32:37.124Z,54.08
2023-01-07T20:35:24.558Z,54.01
2023-01-07T20:38:11.512Z,54.36
2023-01-07T20:40:57.181Z,54.56
2023-01-07T20:43:43.580Z,54.43
2023-01-07T20:46:30.299Z,54.43
2023-01-07T20:49:16.177Z,54.34
2023-01-07T20:52:02.111Z,54.56
2023-01-07T20:54:47.858Z,54.35
2023-01-07T20:57:34.144Z,54.29
2023-01-07T21:00:20.291Z,54.43
2023-01-07T21:03:06.477Z,54.69
2023-01-07T21:05:56.618Z,54.25
2023-01-07T21:08:42.413Z,54.73
2023-01-07T21:11:28.167Z,54.40
2023-01-07T21:14:14.243Z,54.62
2023-01-07T21:17:00.115Z,54.64
2023-01-07T21:19:46.185Z,54.84
2023-01-07T21:22:32.060Z,54.51
2023-01-07T21:25:18.185Z,54.74
2023-01-07T21:28:05.450Z,54.44
2023-01-07T21:30:53.801Z,54.52
2023-01-07T21:33:40.266Z,54.63
2023-01-07T21:36:26.861Z,55.13
2023-01-07T21:39:13.401Z,54.74
2023-01-07T21:42:00.003Z,54.43
2023-01-07T21:44:45.696Z,54.48
2023-01-07T21:47:31.968Z,55.22
2023-01-07T21:50:17.785Z,54.67
2023-01-07T21:53:03.673Z,54.80
2023-01-07T21:55:49.940Z,54.85
2023-01-07T21:58:36.651Z,54.80
2023-01-07T22:01:28.330Z,54.56
2023-01-07T22:04:14.747Z,54.70
2023-01-07T22:07:00.986Z,54.76
2023-01-07T22:09:46.912Z,55.25
2023-01-07T22:12:33.109Z,55.13
2023-01-07T22:15:19.831Z,55.17
2023-01-07T22:18:05.983Z,55.46
2023-01-07T22:20:55.848Z,54.86
2023-01-07T22:23:45.831Z,55.26
2023-01-07T22:26:32.038Z,55.29
2023-01-07T22:29:18.670Z,55.54
2023-01-07T22:32:05.081Z,55.63
2023-01-07T22:34:51.071Z,55.46
2023-01-07T22:37:37.132Z,55.25
2023-01-07T22:40:23.081Z,55.67
2023-01-07T22:43:12.768Z,55.23
2023-01-07T22:46:04.040Z,55.82
2023-01-07T22:48:50.468Z,55.63
2023-01-07T22:51:39.666Z,55.14
2023-01-07T22:54:25.777Z,55.30
2023-01-07T22:57:12.329Z,55.41
2023-01-07T22:59:59.156Z,55.29
2023-01-07T23:02:45.122Z,55.40
2023-01-07T23:05:30.962Z,55.43
2023-01-07T23:08:17.533Z,55.35
2023-01-07T23:11:04.336Z,55.63
2023-01-07T23:13:49.970Z,55.92
2023-01-07T23:16:36.731Z,55.75
2023-01-07T23:19:22.982Z,55.92
2023-01-07T23:22:08.847Z,55.39
2023-01-07T23:24:54.723Z,55.32
2023-01-07T23:27:40.400Z,55.38
2023-01-07T23:30:26.288Z,55.56
2023-01-07T23:33:12.299Z,55.79
2023-01-07T23:36:08.712Z,56.13
2023-01-07T23:38:54.819Z,55.51
2023-01-07T23:41:40.997Z,55.60
2023-01-07T23:44:27.538Z,55.80
2023-01-07T23:47:13.227Z,55.62
2023-01-07T23:49:59.042Z,55.98
2023-01-07T23:52:45.230Z,55.96
2023-01-07T23:55:30.842Z,55.83
2023-01-07T23:58:16.470Z,55.48
